sensor_id;sensor_type;location;lat;lon;timestamp;temperature;humidity
72814;DHT22;60945;48.516;-2.768;2022-12-18T00:01:06;1.00;64.60
72814;DHT22;60945;48.516;-2.768;2022-12-18T00:03:38;1.00;64.90
72814;DHT22;60945;48.516;-2.768;2022-12-18T00:06:06;1.00;64.60
72814;DHT22;60945;48.516;-2.768;2022-12-18T00:08:32;1.00;64.60
72814;DHT22;60945;48.516;-2.768;2022-12-18T00:11:07;1.10;64.50
72814;DHT22;60945;48.516;-2.768;2022-12-18T00:13:33;1.00;64.80
72814;DHT22;60945;48.516;-2.768;2022-12-18T00:16:07;0.90;65.20
72814;DHT22;60945;48.516;-2.768;2022-12-18T00:18:35;1.00;65.00
72814;DHT22;60945;48.516;-2.768;2022-12-18T00:21:02;0.90;65.50
72814;DHT22;60945;48.516;-2.768;2022-12-18T00:23:29;0.90;65.20
72814;DHT22;60945;48.516;-2.768;2022-12-18T00:25:59;0.70;65.90
72814;DHT22;60945;48.516;-2.768;2022-12-18T00:28:25;0.80;65.80
72814;DHT22;60945;48.516;-2.768;2022-12-18T00:30:50;0.70;66.40
72814;DHT22;60945;48.516;-2.768;2022-12-18T00:33:17;0.90;65.80
72814;DHT22;60945;48.516;-2.768;2022-12-18T00:35:43;1.00;65.70
72814;DHT22;60945;48.516;-2.768;2022-12-18T00:38:09;1.20;65.10
72814;DHT22;60945;48.516;-2.768;2022-12-18T00:40:34;1.40;63.90
72814;DHT22;60945;48.516;-2.768;2022-12-18T00:43:00;1.60;63.40
72814;DHT22;60945;48.516;-2.768;2022-12-18T00:45:31;1.50;63.40
72814;DHT22;60945;48.516;-2.768;2022-12-18T00:47:57;1.60;63.00
72814;DHT22;60945;48.516;-2.768;2022-12-18T00:50:24;1.80;62.80
72814;DHT22;60945;48.516;-2.768;2022-12-18T00:52:50;1.90;63.10
72814;DHT22;60945;48.516;-2.768;2022-12-18T00:55:16;1.90;62.20
72814;DHT22;60945;48.516;-2.768;2022-12-18T00:57:44;1.60;62.70
72814;DHT22;60945;48.516;-2.768;2022-12-18T01:00:13;1.50;63.90
72814;DHT22;60945;48.516;-2.768;2022-12-18T01:02:39;1.30;64.30
72814;DHT22;60945;48.516;-2.768;2022-12-18T01:05:06;1.40;64.30
72814;DHT22;60945;48.516;-2.768;2022-12-18T01:07:32;1.10;65.00
72814;DHT22;60945;48.516;-2.768;2022-12-18T01:09:58;1.20;65.40
72814;DHT22;60945;48.516;-2.768;2022-12-18T01:12:23;1.40;64.50
72814;DHT22;60945;48.516;-2.768;2022-12-18T01:14:49;1.20;64.70
72814;DHT22;60945;48.516;-2.768;2022-12-18T01:17:15;1.10;65.40
72814;DHT22;60945;48.516;-2.768;2022-12-18T01:19:40;1.10;65.40
72814;DHT22;60945;48.516;-2.768;2022-12-18T01:22:08;1.10;65.40
72814;DHT22;60945;48.516;-2.768;2022-12-18T01:24:34;1.20;65.50
72814;DHT22;60945;48.516;-2.768;2022-12-18T01:26:59;1.30;65.20
72814;DHT22;60945;48.516;-2.768;2022-12-18T01:29:25;1.20;65.30
72814;DHT22;60945;48.516;-2.768;2022-12-18T01:31:51;1.10;65.80
72814;DHT22;60945;48.516;-2.768;2022-12-18T01:34:16;1.10;65.70
72814;DHT22;60945;48.516;-2.768;2022-12-18T01:36:42;1.00;66.00
72814;DHT22;60945;48.516;-2.768;2022-12-18T01:39:11;1.20;66.20
72814;DHT22;60945;48.516;-2.768;2022-12-18T01:41:37;0.90;66.50
72814;DHT22;60945;48.516;-2.768;2022-12-18T01:49:59;0.90;67.20
72814;DHT22;60945;48.516;-2.768;2022-12-18T01:52:31;0.90;67.10
72814;DHT22;60945;48.516;-2.768;2022-12-18T01:54:59;0.90;67.60
72814;DHT22;60945;48.516;-2.768;2022-12-18T01:57:26;1.10;66.70
72814;DHT22;60945;48.516;-2.768;2022-12-18T01:59:55;1.20;66.90
72814;DHT22;60945;48.516;-2.768;2022-12-18T02:02:22;1.30;66.40
72814;DHT22;60945;48.516;-2.768;2022-12-18T02:04:48;1.20;66.80
72814;DHT22;60945;48.516;-2.768;2022-12-18T02:07:20;1.30;66.90
72814;DHT22;60945;48.516;-2.768;2022-12-18T02:10:02;1.20;67.00
72814;DHT22;60945;48.516;-2.768;2022-12-18T02:12:49;1.50;66.40
72814;DHT22;60945;48.516;-2.768;2022-12-18T02:15:36;1.30;67.50
72814;DHT22;60945;48.516;-2.768;2022-12-18T02:18:13;1.20;67.70
72814;DHT22;60945;48.516;-2.768;2022-12-18T02:23:47;1.30;68.10
72814;DHT22;60945;48.516;-2.768;2022-12-18T02:28:55;1.50;67.90
72814;DHT22;60945;48.516;-2.768;2022-12-18T02:31:26;1.50;68.20
72814;DHT22;60945;48.516;-2.768;2022-12-18T02:33:58;1.70;67.60
72814;DHT22;60945;48.516;-2.768;2022-12-18T02:36:27;1.80;67.00
72814;DHT22;60945;48.516;-2.768;2022-12-18T02:38:54;1.80;67.40
72814;DHT22;60945;48.516;-2.768;2022-12-18T02:41:23;1.80;67.40
72814;DHT22;60945;48.516;-2.768;2022-12-18T02:43:58;1.50;68.60
72814;DHT22;60945;48.516;-2.768;2022-12-18T02:52:29;1.90;68.00
72814;DHT22;60945;48.516;-2.768;2022-12-18T02:57:49;2.10;68.40
72814;DHT22;60945;48.516;-2.768;2022-12-18T03:00:24;2.20;67.70
72814;DHT22;60945;48.516;-2.768;2022-12-18T03:02:59;2.00;68.40
72814;DHT22;60945;48.516;-2.768;2022-12-18T03:05:33;2.10;68.40
72814;DHT22;60945;48.516;-2.768;2022-12-18T03:08:10;2.30;67.70
72814;DHT22;60945;48.516;-2.768;2022-12-18T03:10:41;2.30;68.30
72814;DHT22;60945;48.516;-2.768;2022-12-18T03:13:13;2.50;67.80
72814;DHT22;60945;48.516;-2.768;2022-12-18T03:15:58;2.40;67.60
72814;DHT22;60945;48.516;-2.768;2022-12-18T03:18:30;2.20;68.70
72814;DHT22;60945;48.516;-2.768;2022-12-18T03:21:03;2.00;69.60
72814;DHT22;60945;48.516;-2.768;2022-12-18T03:23:34;2.20;69.50
72814;DHT22;60945;48.516;-2.768;2022-12-18T03:26:06;2.40;69.20
72814;DHT22;60945;48.516;-2.768;2022-12-18T03:28:38;2.50;68.80
72814;DHT22;60945;48.516;-2.768;2022-12-18T03:31:05;2.40;69.20
72814;DHT22;60945;48.516;-2.768;2022-12-18T03:33:47;2.60;68.90
72814;DHT22;60945;48.516;-2.768;2022-12-18T03:36:16;2.60;69.20
72814;DHT22;60945;48.516;-2.768;2022-12-18T03:38:42;2.80;68.50
72814;DHT22;60945;48.516;-2.768;2022-12-18T03:49:10;2.90;68.70
72814;DHT22;60945;48.516;-2.768;2022-12-18T03:51:50;3.00;68.90
72814;DHT22;60945;48.516;-2.768;2022-12-18T03:54:19;3.10;68.60
72814;DHT22;60945;48.516;-2.768;2022-12-18T03:57:01;3.10;68.20
72814;DHT22;60945;48.516;-2.768;2022-12-18T03:59:30;3.00;68.80
72814;DHT22;60945;48.516;-2.768;2022-12-18T04:01:58;2.90;69.70
72814;DHT22;60945;48.516;-2.768;2022-12-18T04:04:25;3.10;69.30
72814;DHT22;60945;48.516;-2.768;2022-12-18T04:06:53;3.20;69.10
72814;DHT22;60945;48.516;-2.768;2022-12-18T04:09:20;3.20;69.50
72814;DHT22;60945;48.516;-2.768;2022-12-18T04:11:46;3.00;70.00
72814;DHT22;60945;48.516;-2.768;2022-12-18T04:14:12;3.00;70.70
72814;DHT22;60945;48.516;-2.768;2022-12-18T04:16:38;3.00;71.00
72814;DHT22;60945;48.516;-2.768;2022-12-18T04:19:04;3.10;71.40
72814;DHT22;60945;48.516;-2.768;2022-12-18T04:21:30;3.20;71.20
72814;DHT22;60945;48.516;-2.768;2022-12-18T04:23:55;3.10;71.90
72814;DHT22;60945;48.516;-2.768;2022-12-18T04:26:21;3.00;72.10
72814;DHT22;60945;48.516;-2.768;2022-12-18T04:28:47;3.20;71.90
72814;DHT22;60945;48.516;-2.768;2022-12-18T04:31:13;3.10;71.90
72814;DHT22;60945;48.516;-2.768;2022-12-18T04:33:38;3.00;72.80
72814;DHT22;60945;48.516;-2.768;2022-12-18T04:36:04;2.90;73.80
72814;DHT22;60945;48.516;-2.768;2022-12-18T04:38:30;2.90;73.70
72814;DHT22;60945;48.516;-2.768;2022-12-18T04:40:56;2.70;74.60
72814;DHT22;60945;48.516;-2.768;2022-12-18T04:43:21;2.70;75.40
72814;DHT22;60945;48.516;-2.768;2022-12-18T04:45:47;2.90;74.40
72814;DHT22;60945;48.516;-2.768;2022-12-18T04:48:13;2.80;74.90
72814;DHT22;60945;48.516;-2.768;2022-12-18T04:50:38;2.60;75.20
72814;DHT22;60945;48.516;-2.768;2022-12-18T04:53:04;2.70;75.70
72814;DHT22;60945;48.516;-2.768;2022-12-18T04:55:29;2.70;75.70
72814;DHT22;60945;48.516;-2.768;2022-12-18T04:57:55;2.60;76.10
72814;DHT22;60945;48.516;-2.768;2022-12-18T05:00:21;2.40;77.50
72814;DHT22;60945;48.516;-2.768;2022-12-18T05:02:47;2.40;77.50
72814;DHT22;60945;48.516;-2.768;2022-12-18T05:05:13;2.50;77.40
72814;DHT22;60945;48.516;-2.768;2022-12-18T05:07:39;2.70;77.20
72814;DHT22;60945;48.516;-2.768;2022-12-18T05:10:08;2.80;76.20
72814;DHT22;60945;48.516;-2.768;2022-12-18T05:12:33;2.80;76.50
72814;DHT22;60945;48.516;-2.768;2022-12-18T05:14:59;2.70;77.00
72814;DHT22;60945;48.516;-2.768;2022-12-18T05:17:25;2.70;77.70
72814;DHT22;60945;48.516;-2.768;2022-12-18T05:19:50;2.80;77.30
72814;DHT22;60945;48.516;-2.768;2022-12-18T05:22:16;2.70;77.80
72814;DHT22;60945;48.516;-2.768;2022-12-18T05:24:41;2.90;77.30
72814;DHT22;60945;48.516;-2.768;2022-12-18T05:27:07;2.70;78.00
72814;DHT22;60945;48.516;-2.768;2022-12-18T05:29:33;2.60;79.00
72814;DHT22;60945;48.516;-2.768;2022-12-18T05:31:58;2.70;79.20
72814;DHT22;60945;48.516;-2.768;2022-12-18T05:34:24;2.80;78.40
72814;DHT22;60945;48.516;-2.768;2022-12-18T05:36:49;2.90;78.80
72814;DHT22;60945;48.516;-2.768;2022-12-18T05:39:15;3.00;78.60
72814;DHT22;60945;48.516;-2.768;2022-12-18T05:41:40;3.00;79.00
72814;DHT22;60945;48.516;-2.768;2022-12-18T05:44:06;3.10;78.70
72814;DHT22;60945;48.516;-2.768;2022-12-18T05:46:32;3.10;78.90
72814;DHT22;60945;48.516;-2.768;2022-12-18T05:49:00;3.20;78.90
72814;DHT22;60945;48.516;-2.768;2022-12-18T05:51:26;3.20;79.30
72814;DHT22;60945;48.516;-2.768;2022-12-18T05:53:52;3.10;79.90
72814;DHT22;60945;48.516;-2.768;2022-12-18T05:56:20;3.20;79.40
72814;DHT22;60945;48.516;-2.768;2022-12-18T05:58:46;3.30;79.50
72814;DHT22;60945;48.516;-2.768;2022-12-18T06:01:17;3.30;79.70
72814;DHT22;60945;48.516;-2.768;2022-12-18T06:03:44;3.20;80.70
72814;DHT22;60945;48.516;-2.768;2022-12-18T06:06:24;3.30;81.60
72814;DHT22;60945;48.516;-2.768;2022-12-18T06:08:50;3.30;81.20
72814;DHT22;60945;48.516;-2.768;2022-12-18T06:11:20;3.50;80.60
72814;DHT22;60945;48.516;-2.768;2022-12-18T06:13:54;3.50;81.00
72814;DHT22;60945;48.516;-2.768;2022-12-18T06:16:20;3.50;80.70
72814;DHT22;60945;48.516;-2.768;2022-12-18T06:18:45;3.40;81.40
72814;DHT22;60945;48.516;-2.768;2022-12-18T06:21:12;3.60;81.20
72814;DHT22;60945;48.516;-2.768;2022-12-18T06:23:38;3.60;80.70
72814;DHT22;60945;48.516;-2.768;2022-12-18T06:26:11;3.60;80.40
72814;DHT22;60945;48.516;-2.768;2022-12-18T06:28:37;3.60;80.60
72814;DHT22;60945;48.516;-2.768;2022-12-18T06:31:04;3.50;81.40
72814;DHT22;60945;48.516;-2.768;2022-12-18T06:33:30;3.50;81.40
72814;DHT22;60945;48.516;-2.768;2022-12-18T06:36:10;3.60;81.30
72814;DHT22;60945;48.516;-2.768;2022-12-18T06:38:37;3.70;81.00
72814;DHT22;60945;48.516;-2.768;2022-12-18T06:41:12;3.70;80.60
72814;DHT22;60945;48.516;-2.768;2022-12-18T06:43:37;3.80;81.00
72814;DHT22;60945;48.516;-2.768;2022-12-18T06:46:04;3.70;81.00
72814;DHT22;60945;48.516;-2.768;2022-12-18T06:48:30;3.80;81.40
72814;DHT22;60945;48.516;-2.768;2022-12-18T06:50:59;4.10;81.00
72814;DHT22;60945;48.516;-2.768;2022-12-18T06:53:25;4.10;80.30
72814;DHT22;60945;48.516;-2.768;2022-12-18T06:55:51;4.00;80.10
72814;DHT22;60945;48.516;-2.768;2022-12-18T06:58:16;4.00;80.20
72814;DHT22;60945;48.516;-2.768;2022-12-18T07:00:42;4.30;80.40
72814;DHT22;60945;48.516;-2.768;2022-12-18T07:03:08;4.50;79.00
72814;DHT22;60945;48.516;-2.768;2022-12-18T07:05:34;4.50;78.90
72814;DHT22;60945;48.516;-2.768;2022-12-18T07:07:59;4.50;78.80
72814;DHT22;60945;48.516;-2.768;2022-12-18T07:10:25;4.60;78.30
72814;DHT22;60945;48.516;-2.768;2022-12-18T07:12:51;4.50;79.10
72814;DHT22;60945;48.516;-2.768;2022-12-18T07:15:17;4.40;79.10
72814;DHT22;60945;48.516;-2.768;2022-12-18T07:17:42;4.40;79.00
72814;DHT22;60945;48.516;-2.768;2022-12-18T07:20:08;4.60;79.20
72814;DHT22;60945;48.516;-2.768;2022-12-18T07:22:34;4.50;78.80
72814;DHT22;60945;48.516;-2.768;2022-12-18T07:25:00;4.50;79.40
72814;DHT22;60945;48.516;-2.768;2022-12-18T07:27:25;4.70;79.30
72814;DHT22;60945;48.516;-2.768;2022-12-18T07:29:51;4.60;79.40
72814;DHT22;60945;48.516;-2.768;2022-12-18T07:32:17;4.60;79.50
72814;DHT22;60945;48.516;-2.768;2022-12-18T07:34:42;4.80;79.20
72814;DHT22;60945;48.516;-2.768;2022-12-18T07:37:08;4.80;78.80
72814;DHT22;60945;48.516;-2.768;2022-12-18T07:39:33;4.50;79.70
72814;DHT22;60945;48.516;-2.768;2022-12-18T07:41:59;4.50;79.60
72814;DHT22;60945;48.516;-2.768;2022-12-18T07:44:43;4.40;80.70
72814;DHT22;60945;48.516;-2.768;2022-12-18T07:47:09;4.20;82.00
72814;DHT22;60945;48.516;-2.768;2022-12-18T07:49:34;4.00;82.80
72814;DHT22;60945;48.516;-2.768;2022-12-18T07:52:00;3.90;83.70
72814;DHT22;60945;48.516;-2.768;2022-12-18T07:54:29;4.00;84.00
72814;DHT22;60945;48.516;-2.768;2022-12-18T07:56:55;4.20;83.40
72814;DHT22;60945;48.516;-2.768;2022-12-18T07:59:20;4.30;83.40
72814;DHT22;60945;48.516;-2.768;2022-12-18T08:01:46;4.30;82.90
72814;DHT22;60945;48.516;-2.768;2022-12-18T08:04:11;4.20;84.00
72814;DHT22;60945;48.516;-2.768;2022-12-18T08:06:37;4.40;83.50
72814;DHT22;60945;48.516;-2.768;2022-12-18T08:09:03;4.30;84.00
72814;DHT22;60945;48.516;-2.768;2022-12-18T08:11:29;4.20;84.60
72814;DHT22;60945;48.516;-2.768;2022-12-18T08:13:55;4.30;84.40
72814;DHT22;60945;48.516;-2.768;2022-12-18T08:16:21;4.20;84.80
72814;DHT22;60945;48.516;-2.768;2022-12-18T08:18:48;4.00;87.00
72814;DHT22;60945;48.516;-2.768;2022-12-18T08:21:16;4.20;86.30
72814;DHT22;60945;48.516;-2.768;2022-12-18T08:23:42;4.20;86.20
72814;DHT22;60945;48.516;-2.768;2022-12-18T08:26:08;4.20;86.80
72814;DHT22;60945;48.516;-2.768;2022-12-18T08:28:34;4.20;86.70
72814;DHT22;60945;48.516;-2.768;2022-12-18T08:31:00;4.50;86.30
72814;DHT22;60945;48.516;-2.768;2022-12-18T08:33:26;4.70;86.00
72814;DHT22;60945;48.516;-2.768;2022-12-18T08:35:52;4.80;88.80
72814;DHT22;60945;48.516;-2.768;2022-12-18T08:38:17;4.90;88.30
72814;DHT22;60945;48.516;-2.768;2022-12-18T08:40:43;4.90;87.80
72814;DHT22;60945;48.516;-2.768;2022-12-18T08:43:12;4.90;88.90
72814;DHT22;60945;48.516;-2.768;2022-12-18T08:45:56;4.90;86.50
72814;DHT22;60945;48.516;-2.768;2022-12-18T08:48:22;5.10;86.70
72814;DHT22;60945;48.516;-2.768;2022-12-18T08:50:58;5.20;85.50
72814;DHT22;60945;48.516;-2.768;2022-12-18T08:53:26;5.30;85.70
72814;DHT22;60945;48.516;-2.768;2022-12-18T08:55:53;5.30;85.90
72814;DHT22;60945;48.516;-2.768;2022-12-18T08:58:19;5.50;85.10
72814;DHT22;60945;48.516;-2.768;2022-12-18T09:00:47;5.50;85.10
72814;DHT22;60945;48.516;-2.768;2022-12-18T09:03:17;5.80;84.40
72814;DHT22;60945;48.516;-2.768;2022-12-18T09:05:43;6.10;83.70
72814;DHT22;60945;48.516;-2.768;2022-12-18T09:08:10;6.20;82.70
72814;DHT22;60945;48.516;-2.768;2022-12-18T09:10:47;6.10;82.80
72814;DHT22;60945;48.516;-2.768;2022-12-18T09:13:13;5.90;84.30
72814;DHT22;60945;48.516;-2.768;2022-12-18T09:15:50;6.00;84.90
72814;DHT22;60945;48.516;-2.768;2022-12-18T09:18:18;6.10;84.60
72814;DHT22;60945;48.516;-2.768;2022-12-18T09:20:44;6.20;84.80
72814;DHT22;60945;48.516;-2.768;2022-12-18T09:23:10;6.00;85.70
72814;DHT22;60945;48.516;-2.768;2022-12-18T09:25:40;6.10;85.90
72814;DHT22;60945;48.516;-2.768;2022-12-18T09:28:11;6.20;86.30
72814;DHT22;60945;48.516;-2.768;2022-12-18T09:30:46;6.30;85.90
72814;DHT22;60945;48.516;-2.768;2022-12-18T09:33:12;6.20;86.50
72814;DHT22;60945;48.516;-2.768;2022-12-18T09:35:40;6.20;87.00
72814;DHT22;60945;48.516;-2.768;2022-12-18T09:38:07;6.30;86.30
72814;DHT22;60945;48.516;-2.768;2022-12-18T09:40:44;6.30;86.10
72814;DHT22;60945;48.516;-2.768;2022-12-18T09:43:20;6.30;87.00
72814;DHT22;60945;48.516;-2.768;2022-12-18T09:46:09;6.40;86.30
72814;DHT22;60945;48.516;-2.768;2022-12-18T09:48:40;6.50;86.40
72814;DHT22;60945;48.516;-2.768;2022-12-18T09:51:20;6.40;87.00
72814;DHT22;60945;48.516;-2.768;2022-12-18T09:53:54;6.50;86.90
72814;DHT22;60945;48.516;-2.768;2022-12-18T09:56:22;6.50;87.10
72814;DHT22;60945;48.516;-2.768;2022-12-18T09:58:57;6.50;87.50
72814;DHT22;60945;48.516;-2.768;2022-12-18T10:01:23;6.60;87.80
72814;DHT22;60945;48.516;-2.768;2022-12-18T10:03:49;6.80;87.40
72814;DHT22;60945;48.516;-2.768;2022-12-18T10:06:26;6.80;87.30
72814;DHT22;60945;48.516;-2.768;2022-12-18T10:09:27;6.90;87.10
72814;DHT22;60945;48.516;-2.768;2022-12-18T10:12:00;6.70;88.30
72814;DHT22;60945;48.516;-2.768;2022-12-18T10:17:42;6.90;87.90
72814;DHT22;60945;48.516;-2.768;2022-12-18T10:20:32;6.90;87.80
72814;DHT22;60945;48.516;-2.768;2022-12-18T10:28:24;7.20;87.60
72814;DHT22;60945;48.516;-2.768;2022-12-18T10:30:50;7.40;86.50
72814;DHT22;60945;48.516;-2.768;2022-12-18T10:33:22;7.40;86.20
72814;DHT22;60945;48.516;-2.768;2022-12-18T10:35:50;7.30;87.10
72814;DHT22;60945;48.516;-2.768;2022-12-18T10:40:57;7.20;87.50
72814;DHT22;60945;48.516;-2.768;2022-12-18T10:43:34;7.20;88.60
72814;DHT22;60945;48.516;-2.768;2022-12-18T10:48:30;7.30;87.50
72814;DHT22;60945;48.516;-2.768;2022-12-18T10:50:57;7.50;87.10
72814;DHT22;60945;48.516;-2.768;2022-12-18T10:53:25;7.50;87.00
72814;DHT22;60945;48.516;-2.768;2022-12-18T10:55:53;7.50;87.30
72814;DHT22;60945;48.516;-2.768;2022-12-18T10:58:29;7.60;86.90
72814;DHT22;60945;48.516;-2.768;2022-12-18T11:01:16;7.80;86.30
72814;DHT22;60945;48.516;-2.768;2022-12-18T11:03:45;7.90;85.60
72814;DHT22;60945;48.516;-2.768;2022-12-18T11:06:12;7.90;85.30
72814;DHT22;60945;48.516;-2.768;2022-12-18T11:08:38;8.00;85.60
72814;DHT22;60945;48.516;-2.768;2022-12-18T11:11:14;8.10;84.90
72814;DHT22;60945;48.516;-2.768;2022-12-18T11:13:51;8.00;85.60
72814;DHT22;60945;48.516;-2.768;2022-12-18T11:16:20;8.10;86.10
72814;DHT22;60945;48.516;-2.768;2022-12-18T11:18:45;8.30;85.50
72814;DHT22;60945;48.516;-2.768;2022-12-18T11:21:13;8.20;86.40
72814;DHT22;60945;48.516;-2.768;2022-12-18T11:23:53;8.30;86.60
72814;DHT22;60945;48.516;-2.768;2022-12-18T11:26:19;8.40;86.20
72814;DHT22;60945;48.516;-2.768;2022-12-18T11:28:52;8.60;84.90
72814;DHT22;60945;48.516;-2.768;2022-12-18T11:31:34;8.50;85.20
72814;DHT22;60945;48.516;-2.768;2022-12-18T11:36:36;8.50;86.10
72814;DHT22;60945;48.516;-2.768;2022-12-18T11:39:17;8.80;85.30
72814;DHT22;60945;48.516;-2.768;2022-12-18T11:41:58;9.00;85.10
72814;DHT22;60945;48.516;-2.768;2022-12-18T11:44:52;9.20;84.10
72814;DHT22;60945;48.516;-2.768;2022-12-18T11:52:54;9.40;83.00
72814;DHT22;60945;48.516;-2.768;2022-12-18T12:00:30;9.40;83.50
72814;DHT22;60945;48.516;-2.768;2022-12-18T12:03:18;9.40;82.70
72814;DHT22;60945;48.516;-2.768;2022-12-18T12:06:10;9.40;83.20
72814;DHT22;60945;48.516;-2.768;2022-12-18T12:08:47;9.60;82.20
72814;DHT22;60945;48.516;-2.768;2022-12-18T12:14:07;9.60;82.70
72814;DHT22;60945;48.516;-2.768;2022-12-18T12:17:03;9.60;82.00
72814;DHT22;60945;48.516;-2.768;2022-12-18T12:22:37;10.30;78.90
72814;DHT22;60945;48.516;-2.768;2022-12-18T12:28:24;10.40;78.30
72814;DHT22;60945;48.516;-2.768;2022-12-18T12:31:18;10.00;80.20
72814;DHT22;60945;48.516;-2.768;2022-12-18T12:39:28;9.80;80.70
72814;DHT22;60945;48.516;-2.768;2022-12-18T12:44:51;10.10;79.90
72814;DHT22;60945;48.516;-2.768;2022-12-18T12:47:31;10.10;80.40
72814;DHT22;60945;48.516;-2.768;2022-12-18T12:50:04;10.40;78.80
72814;DHT22;60945;48.516;-2.768;2022-12-18T12:52:35;10.30;80.00
72814;DHT22;60945;48.516;-2.768;2022-12-18T12:55:05;10.30;79.00
72814;DHT22;60945;48.516;-2.768;2022-12-18T12:57:38;10.10;80.30
72814;DHT22;60945;48.516;-2.768;2022-12-18T13:00:10;10.30;80.10
72814;DHT22;60945;48.516;-2.768;2022-12-18T13:02:51;10.40;79.80
72814;DHT22;60945;48.516;-2.768;2022-12-18T13:05:45;10.10;81.50
72814;DHT22;60945;48.516;-2.768;2022-12-18T13:08:32;10.60;79.30
72814;DHT22;60945;48.516;-2.768;2022-12-18T13:10:59;10.70;79.30
72814;DHT22;60945;48.516;-2.768;2022-12-18T13:13:53;10.60;80.00
72814;DHT22;60945;48.516;-2.768;2022-12-18T13:16:20;10.60;79.70
72814;DHT22;60945;48.516;-2.768;2022-12-18T13:18:54;10.70;80.10
72814;DHT22;60945;48.516;-2.768;2022-12-18T13:21:28;10.90;79.80
72814;DHT22;60945;48.516;-2.768;2022-12-18T13:23:55;10.90;79.70
72814;DHT22;60945;48.516;-2.768;2022-12-18T13:28:53;11.10;78.40
72814;DHT22;60945;48.516;-2.768;2022-12-18T13:34:16;11.00;78.80
72814;DHT22;60945;48.516;-2.768;2022-12-18T13:36:42;11.10;78.50
72814;DHT22;60945;48.516;-2.768;2022-12-18T13:39:10;11.30;77.40
72814;DHT22;60945;48.516;-2.768;2022-12-18T13:41:36;11.10;77.90
72814;DHT22;60945;48.516;-2.768;2022-12-18T13:46:57;10.70;80.20
72814;DHT22;60945;48.516;-2.768;2022-12-18T13:51:57;10.60;80.00
72814;DHT22;60945;48.516;-2.768;2022-12-18T13:54:35;10.70;80.30
72814;DHT22;60945;48.516;-2.768;2022-12-18T13:57:03;10.60;80.20
72814;DHT22;60945;48.516;-2.768;2022-12-18T13:59:37;10.30;81.40
72814;DHT22;60945;48.516;-2.768;2022-12-18T14:02:26;10.70;80.50
72814;DHT22;60945;48.516;-2.768;2022-12-18T14:04:52;10.90;79.50
72814;DHT22;60945;48.516;-2.768;2022-12-18T14:07:24;10.80;80.70
72814;DHT22;60945;48.516;-2.768;2022-12-18T14:09:53;11.00;79.00
72814;DHT22;60945;48.516;-2.768;2022-12-18T14:12:26;10.90;79.80
72814;DHT22;60945;48.516;-2.768;2022-12-18T14:15:43;10.90;80.20
72814;DHT22;60945;48.516;-2.768;2022-12-18T14:18:38;11.00;79.90
72814;DHT22;60945;48.516;-2.768;2022-12-18T14:21:14;11.10;80.00
72814;DHT22;60945;48.516;-2.768;2022-12-18T14:23:42;10.80;81.50
72814;DHT22;60945;48.516;-2.768;2022-12-18T14:26:25;10.70;82.50
72814;DHT22;60945;48.516;-2.768;2022-12-18T14:28:53;10.80;82.60
72814;DHT22;60945;48.516;-2.768;2022-12-18T14:31:24;10.70;82.60
72814;DHT22;60945;48.516;-2.768;2022-12-18T14:33:50;10.40;83.80
72814;DHT22;60945;48.516;-2.768;2022-12-18T14:36:22;10.60;83.90
72814;DHT22;60945;48.516;-2.768;2022-12-18T14:38:52;10.80;82.80
72814;DHT22;60945;48.516;-2.768;2022-12-18T14:41:20;10.80;82.90
72814;DHT22;60945;48.516;-2.768;2022-12-18T14:43:49;10.80;82.30
72814;DHT22;60945;48.516;-2.768;2022-12-18T14:46:37;10.50;83.50
72814;DHT22;60945;48.516;-2.768;2022-12-18T14:49:15;10.30;84.80
72814;DHT22;60945;48.516;-2.768;2022-12-18T14:51:51;10.60;83.90
72814;DHT22;60945;48.516;-2.768;2022-12-18T14:54:19;10.70;82.90
72814;DHT22;60945;48.516;-2.768;2022-12-18T14:56:51;10.60;83.90
72814;DHT22;60945;48.516;-2.768;2022-12-18T14:59:22;10.90;82.60
72814;DHT22;60945;48.516;-2.768;2022-12-18T15:04:42;11.30;80.80
72814;DHT22;60945;48.516;-2.768;2022-12-18T15:07:23;11.20;81.10
72814;DHT22;60945;48.516;-2.768;2022-12-18T15:20:50;11.20;82.00
72814;DHT22;60945;48.516;-2.768;2022-12-18T15:26:04;10.80;83.90
72814;DHT22;60945;48.516;-2.768;2022-12-18T15:28:51;11.00;82.90
72814;DHT22;60945;48.516;-2.768;2022-12-18T15:31:21;11.00;82.60
72814;DHT22;60945;48.516;-2.768;2022-12-18T15:36:21;10.80;84.80
72814;DHT22;60945;48.516;-2.768;2022-12-18T15:38:48;10.90;83.70
72814;DHT22;60945;48.516;-2.768;2022-12-18T15:41:15;10.70;84.80
72814;DHT22;60945;48.516;-2.768;2022-12-18T15:43:42;10.80;83.80
72814;DHT22;60945;48.516;-2.768;2022-12-18T15:46:13;10.80;83.90
72814;DHT22;60945;48.516;-2.768;2022-12-18T15:48:41;10.70;84.00
72814;DHT22;60945;48.516;-2.768;2022-12-18T15:51:14;10.70;84.60
72814;DHT22;60945;48.516;-2.768;2022-12-18T15:53:41;10.80;84.20
72814;DHT22;60945;48.516;-2.768;2022-12-18T15:56:14;10.80;83.80
72814;DHT22;60945;48.516;-2.768;2022-12-18T15:58:59;10.70;84.90
72814;DHT22;60945;48.516;-2.768;2022-12-18T16:01:27;10.80;85.30
72814;DHT22;60945;48.516;-2.768;2022-12-18T16:03:53;10.60;85.40
72814;DHT22;60945;48.516;-2.768;2022-12-18T16:06:19;10.60;85.10
72814;DHT22;60945;48.516;-2.768;2022-12-18T16:08:45;10.70;84.80
72814;DHT22;60945;48.516;-2.768;2022-12-18T16:11:21;10.70;84.80
72814;DHT22;60945;48.516;-2.768;2022-12-18T16:14:30;10.60;84.70
72814;DHT22;60945;48.516;-2.768;2022-12-18T16:17:00;10.60;85.10
72814;DHT22;60945;48.516;-2.768;2022-12-18T16:19:29;10.60;84.60
72814;DHT22;60945;48.516;-2.768;2022-12-18T16:21:56;10.60;84.60
72814;DHT22;60945;48.516;-2.768;2022-12-18T16:24:24;10.40;85.80
72814;DHT22;60945;48.516;-2.768;2022-12-18T16:26:51;10.60;85.30
72814;DHT22;60945;48.516;-2.768;2022-12-18T16:29:18;10.60;84.80
72814;DHT22;60945;48.516;-2.768;2022-12-18T16:31:44;10.70;84.60
72814;DHT22;60945;48.516;-2.768;2022-12-18T16:34:14;10.70;85.90
72814;DHT22;60945;48.516;-2.768;2022-12-18T16:36:43;10.80;84.90
72814;DHT22;60945;48.516;-2.768;2022-12-18T16:39:08;10.90;84.70
72814;DHT22;60945;48.516;-2.768;2022-12-18T16:41:34;10.90;85.00
72814;DHT22;60945;48.516;-2.768;2022-12-18T16:44:00;10.90;85.10
72814;DHT22;60945;48.516;-2.768;2022-12-18T16:46:26;10.90;86.10
72814;DHT22;60945;48.516;-2.768;2022-12-18T16:48:52;10.80;86.40
72814;DHT22;60945;48.516;-2.768;2022-12-18T16:51:18;10.80;86.90
72814;DHT22;60945;48.516;-2.768;2022-12-18T16:53:43;11.10;85.80
72814;DHT22;60945;48.516;-2.768;2022-12-18T16:56:09;11.20;85.40
72814;DHT22;60945;48.516;-2.768;2022-12-18T16:58:35;11.20;85.60
72814;DHT22;60945;48.516;-2.768;2022-12-18T17:01:07;11.00;86.60
72814;DHT22;60945;48.516;-2.768;2022-12-18T17:03:34;11.10;85.50
72814;DHT22;60945;48.516;-2.768;2022-12-18T17:06:03;11.00;86.90
72814;DHT22;60945;48.516;-2.768;2022-12-18T17:08:29;11.20;86.20
72814;DHT22;60945;48.516;-2.768;2022-12-18T17:10:55;11.20;85.80
72814;DHT22;60945;48.516;-2.768;2022-12-18T17:13:21;11.20;86.20
72814;DHT22;60945;48.516;-2.768;2022-12-18T17:15:50;11.20;85.80
72814;DHT22;60945;48.516;-2.768;2022-12-18T17:18:15;11.40;85.50
72814;DHT22;60945;48.516;-2.768;2022-12-18T17:20:41;11.30;85.50
72814;DHT22;60945;48.516;-2.768;2022-12-18T17:23:06;11.10;87.40
72814;DHT22;60945;48.516;-2.768;2022-12-18T17:25:32;11.20;87.10
72814;DHT22;60945;48.516;-2.768;2022-12-18T17:27:58;11.20;86.70